Millersville, Ohio
Current Conditions -  °F | °C
As of 1:08 AM on Thursday 23 Oct 2014 (Local Time) from KTDZ Reporting Station
Broken Clouds Broken Clouds  
Wind Chill: 39°   Ceiling: 1500
Heat Index: 42°   Visibility: 10mi
Dew Point: 37°   Wind: 5mph
Humidity: 82%   Direction: 350°N
Pressure: 30.28"   Gusts: NA
Location:  41.324°N, 83.3168°W
Report Text: KTDZ 230508Z AUTO 35004KT 10SM BKN015 06/03 A3028 RMK AO2 T00560028 TSNO
Loading
Personal Weather Stations






























Interactive Weather Map
Tropical Storm Tracking
New forecast layout! Learn more

10-Day Weather Forecast

Advertisements
Track Severe Weather on mobile